Bhakkar Weather



Bhakkar's Current Weather

Temprature 39.76o clear sky

clear sky

Rain: 0 %

Min Temprature39.76o
Max Temprature39.76o
Humidity13
Wind Speed1.35 m/h
Sun Rise05:24:25
Sun Set19:00:03
Current Time: 08-May-2021 15:42:02
Lat/Lon: 31.6253, 71.0657




Bhakkar's Geo Location



Bhakkar's Weather Forecast

Time Overall Temp Min Temp Max Temp Humidity Wind Speed Rain
08-May-2021 (Sat)
17:00:00 clear sky 39.660 39.660 39.660 12 1.16 m/h 0 %
20:00:00 clear sky 38.580 36.430 38.580 14 3.19 m/h 0 %
23:00:00 few clouds 34.250 31.550 34.250 22 5.14 m/h 0 %
09-May-2021 (Sun)
02:00:00 broken clouds 30.560 30.560 30.560 29 1.18 m/h 0 %
05:00:00 scattered clouds 29.020 29.020 29.020 32 2.98 m/h 0 %
08:00:00 broken clouds 32.680 32.680 32.680 25 3.79 m/h 0 %
11:00:00 scattered clouds 37.740 37.740 37.740 16 2.89 m/h 0 %
14:00:00 clear sky 40.380 40.380 40.380 12 1.32 m/h 0 %
17:00:00 clear sky 40.670 40.670 40.670 11 0.17 m/h 0 %
20:00:00 few clouds 35.510 35.510 35.510 18 5.09 m/h 0 %
23:00:00 scattered clouds 31.830 31.830 31.830 25 7.61 m/h 0 %
10-May-2021 (Mon)
02:00:00 few clouds 29.400 29.400 29.400 30 3.82 m/h 0 %
05:00:00 scattered clouds 27.690 27.690 27.690 38 3.34 m/h 0 %
08:00:00 overcast clouds 30.560 30.560 30.560 31 3.41 m/h 0 %
11:00:00 overcast clouds 36.020 36.020 36.020 20 3.39 m/h 0 %
14:00:00 broken clouds 39.840 39.840 39.840 14 2.34 m/h 0 %
17:00:00 broken clouds 40.980 40.980 40.980 11 2.15 m/h 0 %
20:00:00 clear sky 36.940 36.940 36.940 14 2.8 m/h 0 %
23:00:00 scattered clouds 34.330 34.330 34.330 17 1.25 m/h 0 %
11-May-2021 (Tue)
02:00:00 scattered clouds 32.070 32.070 32.070 19 1.64 m/h 0 %
05:00:00 scattered clouds 29.970 29.970 29.970 23 1.42 m/h 0 %
08:00:00 few clouds 34.210 34.210 34.210 18 2.83 m/h 0 %
11:00:00 scattered clouds 39.820 39.820 39.820 13 3.12 m/h 0 %
14:00:00 broken clouds 42.190 42.190 42.190 10 2.06 m/h 0 %
17:00:00 broken clouds 38.170 38.170 38.170 13 9.67 m/h 0 %
20:00:00 overcast clouds 36.060 36.060 36.060 16 4.54 m/h 0 %
23:00:00 overcast clouds 33.600 33.600 33.600 21 6.17 m/h 0 %
12-May-2021 (Wed)
02:00:00 overcast clouds 31.120 31.120 31.120 28 5.35 m/h 0 %
05:00:00 broken clouds 28.060 28.060 28.060 38 6.31 m/h 0 %
08:00:00 broken clouds 30.950 30.950 30.950 30 7.29 m/h 0 %
11:00:00 scattered clouds 35.100 35.100 35.100 24 4.81 m/h 0 %
14:00:00 clear sky 37.760 37.760 37.760 19 2.87 m/h 0 %
17:00:00 clear sky 38.630 38.630 38.630 17 4.31 m/h 0 %
20:00:00 light rain 27.620 27.620 27.620 47 7.09 m/h 16 %
23:00:00 few clouds 26.480 26.480 26.480 49 4.48 m/h 0 %
13-May-2021 (Thu)
02:00:00 overcast clouds 26.090 26.090 26.090 49 2.36 m/h 0 %
05:00:00 light rain 25.010 25.010 25.010 53 3.81 m/h 21 %
08:00:00 light rain 26.800 26.800 26.800 47 3.22 m/h 98 %
11:00:00 light rain 32.070 32.070 32.070 32 3.72 m/h 129 %
14:00:00 clear sky 35.370 35.370 35.370 24 2.8 m/h 0 %


Bhakkar's Tourist Spots

Historical Places in Bhakkar

Famous Cities (60)